createdAt,value
2023-02-16T00:49:45.097Z,28.32
2023-02-16T00:50:45.104Z,28.34
2023-02-16T00:51:45.111Z,28.33
2023-02-16T00:52:45.112Z,28.34
2023-02-16T00:53:45.123Z,28.36
2023-02-16T00:54:45.135Z,28.35
2023-02-16T00:55:45.138Z,28.35
2023-02-16T00:56:45.150Z,28.33
2023-02-16T00:57:45.140Z,28.36
2023-02-16T00:58:45.150Z,28.38
2023-02-16T00:59:45.153Z,28.36
2023-02-16T01:00:45.170Z,28.35
2023-02-16T01:01:45.227Z,28.32
2023-02-16T01:02:45.181Z,28.35
2023-02-16T01:03:45.179Z,28.35
2023-02-16T01:04:45.252Z,28.37
2023-02-16T01:05:45.190Z,28.38
2023-02-16T01:06:45.196Z,28.34
2023-02-16T01:07:45.209Z,28.34
2023-02-16T01:08:45.217Z,28.35
2023-02-16T01:09:45.228Z,28.32
2023-02-16T01:10:45.235Z,28.32
2023-02-16T01:11:45.243Z,28.29
2023-02-16T01:12:45.300Z,28.29
2023-02-16T01:13:45.314Z,28.33
2023-02-16T01:14:45.281Z,28.33
2023-02-16T01:15:45.324Z,28.31
2023-02-16T01:16:46.222Z,28.32
2023-02-16T01:17:45.303Z,28.33
2023-02-16T01:18:45.312Z,28.32
2023-02-16T01:19:45.331Z,28.32
2023-02-16T01:20:45.331Z,28.30
2023-02-16T01:21:45.339Z,28.34
2023-02-16T01:22:45.346Z,28.34
2023-02-16T01:23:45.442Z,28.33
2023-02-16T01:24:45.378Z,28.33
2023-02-16T01:25:45.404Z,28.31
2023-02-16T01:26:45.421Z,28.33
2023-02-16T01:27:45.421Z,28.30
2023-02-16T01:28:45.428Z,28.32
2023-02-16T07:11:44.080Z,27.23
2023-02-16T08:21:43.333Z,26.96
2023-02-16T08:24:43.278Z,26.94
2023-02-16T08:25:43.273Z,26.93
2023-02-16T08:27:43.254Z,26.92
2023-02-16T08:28:43.235Z,26.92
2023-02-16T08:29:43.298Z,26.91
2023-02-16T08:30:43.249Z,26.92
2023-02-16T08:31:43.388Z,26.91
2023-02-16T08:32:43.184Z,26.85
2023-02-16T08:33:43.156Z,26.90
2023-02-16T08:34:43.585Z,26.87
2023-02-16T08:35:43.199Z,26.84
2023-02-16T08:36:43.103Z,26.85
2023-02-16T08:37:43.094Z,26.82
2023-02-16T08:38:43.097Z,26.82
2023-02-16T08:39:43.156Z,26.80
2023-02-16T08:40:43.046Z,26.84
2023-02-16T08:41:43.038Z,26.80
2023-02-16T08:42:43.012Z,26.83
2023-02-16T08:43:42.991Z,26.82
2023-02-16T08:44:43.049Z,26.81
2023-02-16T08:45:43.007Z,26.82
2023-02-16T08:46:42.955Z,26.82
2023-02-16T08:47:42.928Z,26.77
2023-02-16T08:48:42.919Z,26.79
2023-02-16T08:49:42.888Z,26.79
2023-02-16T08:50:42.963Z,26.79
2023-02-16T08:51:42.874Z,26.75
2023-02-16T08:52:42.844Z,26.77
2023-02-16T08:53:42.817Z,26.77
2023-02-16T08:54:42.798Z,26.75
2023-02-16T08:55:42.788Z,26.75
2023-02-16T08:57:42.745Z,26.72
2023-02-16T08:58:42.730Z,26.74
2023-02-16T08:59:42.712Z,26.74
2023-02-16T09:00:42.695Z,26.72
2023-02-16T09:01:42.688Z,26.68
2023-02-16T09:02:42.676Z,26.69
2023-02-16T09:03:42.650Z,26.69
2023-02-16T09:04:42.757Z,26.65
2023-02-16T09:05:42.625Z,26.66
2023-02-16T09:06:42.597Z,26.67
2023-02-16T09:07:42.592Z,26.65
2023-02-16T09:08:42.552Z,26.63
2023-02-16T09:09:42.854Z,26.62
2023-02-16T09:10:42.514Z,26.61
2023-02-16T09:11:42.477Z,26.60
2023-02-16T09:12:42.450Z,26.61
2023-02-16T09:13:42.429Z,26.59
2023-02-16T09:14:42.398Z,26.59
2023-02-16T09:15:42.377Z,26.59
2023-02-16T09:16:42.368Z,26.57
2023-02-16T09:17:42.323Z,26.55
2023-02-16T09:18:42.294Z,26.54
2023-02-16T09:19:42.256Z,26.56
2023-02-16T09:20:43.347Z,26.57
2023-02-16T09:21:42.280Z,26.56
2023-02-16T09:22:42.169Z,26.55
2023-02-16T09:23:44.321Z,26.55
2023-02-16T09:24:42.078Z,26.53
2023-02-16T09:25:42.082Z,26.53
2023-02-16T09:26:41.992Z,26.55
2023-02-16T09:27:41.939Z,26.51
2023-02-16T09:28:41.884Z,26.52
2023-02-16T09:29:41.853Z,26.51
2023-02-16T09:30:41.828Z,26.52
2023-02-16T09:31:41.794Z,26.52
2023-02-16T09:32:41.701Z,26.48
2023-02-16T09:33:41.644Z,26.47
2023-02-16T09:34:41.593Z,26.42
2023-02-16T09:35:41.554Z,26.45
2023-02-16T09:36:41.494Z,26.44
2023-02-16T09:37:41.443Z,26.39
2023-02-16T09:38:41.391Z,26.38
2023-02-16T09:39:41.356Z,26.39
2023-02-16T09:40:41.299Z,26.32
2023-02-16T09:41:41.273Z,26.34
2023-02-16T09:42:41.206Z,26.37
2023-02-16T09:43:41.167Z,26.31
2023-02-16T09:44:41.115Z,26.32
2023-02-16T09:45:41.140Z,26.31
2023-02-16T09:46:41.086Z,26.30
2023-02-16T09:47:40.970Z,26.26
2023-02-16T09:48:40.990Z,26.30
2023-02-16T09:49:40.890Z,26.26
2023-02-16T09:50:53.340Z,26.30
2023-02-16T09:51:41.808Z,26.28
2023-02-16T09:52:40.735Z,26.27
2023-02-16T09:53:40.760Z,26.23
2023-02-16T09:54:40.714Z,26.20
2023-02-16T09:55:40.625Z,26.22
2023-02-16T09:56:40.543Z,26.18
2023-02-16T09:57:40.490Z,26.16
2023-02-16T09:58:40.467Z,26.15
2023-02-16T09:59:40.416Z,26.16
2023-02-16T10:00:40.326Z,26.12
2023-02-16T10:01:40.401Z,26.09
2023-02-16T10:02:40.287Z,26.11
2023-02-16T10:03:40.236Z,26.07
2023-02-16T10:04:40.979Z,26.05
2023-02-16T10:05:40.303Z,26.03
2023-02-16T10:06:40.291Z,26.03
2023-02-16T10:07:40.388Z,26.03
2023-02-16T11:09:39.293Z,25.26
2023-02-16T11:11:39.199Z,25.21
2023-02-16T11:12:39.156Z,25.16
2023-02-16T11:13:39.090Z,25.23
2023-02-16T11:14:39.092Z,25.23
2023-02-16T11:15:39.078Z,25.21
2023-02-16T11:16:38.933Z,25.21
2023-02-16T11:17:38.892Z,25.21
2023-02-16T11:18:38.860Z,25.17
2023-02-16T11:19:38.788Z,25.17
2023-02-16T11:20:38.750Z,25.15
2023-02-16T11:21:39.445Z,25.14
2023-02-16T11:22:38.672Z,25.13
2023-02-16T11:23:38.603Z,25.09
2023-02-16T11:24:39.447Z,25.11
2023-02-16T11:25:38.561Z,25.08
2023-02-16T11:26:38.510Z,25.06
2023-02-16T11:27:38.430Z,25.12
2023-02-16T11:28:38.396Z,25.08
2023-02-16T11:29:38.351Z,25.07
2023-02-16T11:30:38.958Z,25.05
2023-02-16T11:31:38.333Z,25.07
2023-02-16T11:32:38.231Z,25.11
2023-02-16T11:33:38.189Z,25.05
2023-02-16T11:34:38.170Z,25.02
2023-02-16T11:35:38.131Z,25.02
2023-02-16T11:36:38.169Z,24.98
2023-02-16T11:37:38.966Z,25.00
2023-02-16T11:38:38.142Z,24.98
2023-02-16T11:39:38.162Z,24.96
2023-02-16T11:40:38.153Z,24.99
2023-02-16T11:41:38.176Z,25.04
2023-02-16T11:42:38.171Z,24.98
2023-02-16T11:43:38.183Z,24.96
2023-02-16T11:44:38.169Z,24.96
2023-02-16T11:45:38.251Z,24.88
2023-02-16T11:46:38.229Z,24.88
2023-02-16T11:47:38.180Z,24.89
2023-02-16T11:48:38.177Z,24.87
2023-02-16T11:49:38.189Z,24.86
2023-02-16T11:50:38.189Z,24.84
2023-02-16T11:51:38.179Z,24.81
2023-02-16T11:52:38.236Z,24.83
2023-02-16T11:53:38.168Z,24.77
2023-02-16T11:54:38.171Z,24.76
2023-02-16T11:55:38.168Z,24.76
2023-02-16T11:56:38.162Z,24.73
2023-02-16T11:57:38.151Z,24.72
2023-02-16T11:58:38.128Z,24.70
2023-02-16T11:59:38.112Z,24.67
2023-02-16T12:00:38.113Z,24.65
2023-02-16T12:01:38.091Z,24.63
2023-02-16T12:02:38.058Z,24.71
2023-02-16T12:03:38.139Z,24.68
2023-02-16T12:04:38.953Z,24.58
2023-02-16T12:05:38.032Z,24.68
2023-02-16T12:06:37.950Z,24.61
2023-02-16T12:07:37.961Z,24.58
2023-02-16T12:08:37.896Z,24.61
2023-02-16T12:09:37.868Z,24.57
2023-02-16T12:10:37.834Z,24.54
2023-02-16T12:11:37.803Z,24.48
2023-02-16T13:22:35.593Z,23.65
2023-02-16T13:24:35.530Z,23.61
2023-02-16T13:25:35.676Z,23.59
2023-02-16T13:26:35.470Z,23.60
2023-02-16T13:27:35.403Z,23.56
2023-02-16T13:28:35.469Z,23.50
2023-02-16T13:29:35.423Z,23.50
2023-02-16T13:30:35.356Z,23.37
2023-02-16T13:31:35.383Z,23.33
2023-02-16T13:32:35.164Z,23.23
2023-02-16T13:33:35.117Z,23.14
2023-02-16T13:34:35.051Z,23.09
2023-02-16T13:35:34.989Z,22.97
2023-02-16T13:36:34.914Z,22.85
2023-02-16T13:37:34.849Z,22.73
2023-02-16T13:38:34.773Z,22.60
2023-02-16T13:39:34.696Z,22.49
2023-02-16T13:40:34.618Z,22.40
2023-02-16T13:41:34.550Z,22.28
2023-02-16T13:42:34.536Z,22.19
2023-02-16T13:43:34.483Z,22.12
2023-02-16T13:44:34.434Z,22.03
2023-02-16T13:45:34.402Z,21.98
2023-02-16T13:46:34.353Z,21.98
2023-02-16T13:47:34.322Z,22.03
2023-02-16T13:48:34.302Z,22.13
2023-02-16T13:49:34.265Z,22.29
2023-02-16T13:50:34.266Z,22.49
2023-02-16T13:51:34.233Z,22.60
2023-02-16T13:52:34.185Z,22.77
2023-02-16T13:53:34.135Z,22.90
2023-02-16T13:54:34.065Z,23.00
2023-02-16T13:55:33.983Z,23.14
2023-02-16T13:56:33.911Z,23.23
2023-02-16T13:57:33.835Z,23.35
2023-02-16T13:58:33.777Z,23.44
2023-02-16T13:59:33.693Z,23.47
2023-02-16T14:00:33.630Z,23.52
2023-02-16T14:01:34.649Z,23.62
2023-02-16T14:02:33.601Z,23.63
2023-02-16T14:03:33.564Z,23.68
2023-02-16T14:04:33.461Z,23.72
2023-02-16T14:05:33.355Z,23.82
2023-02-16T14:06:33.273Z,23.82
2023-02-16T14:07:33.220Z,23.89
2023-02-16T14:08:33.203Z,23.93
2023-02-16T14:09:33.522Z,23.92
2023-02-16T14:10:33.048Z,23.93
2023-02-16T14:11:32.997Z,23.98
2023-02-16T14:12:32.941Z,24.03
2023-02-16T14:13:32.888Z,24.03
2023-02-16T14:14:32.839Z,24.06
2023-02-16T14:15:32.877Z,24.04
2023-02-16T14:16:32.777Z,24.10
2023-02-16T14:17:32.719Z,24.13
2023-02-16T14:18:32.685Z,24.14
2023-02-16T14:19:32.651Z,24.15
2023-02-16T14:20:32.623Z,24.20
2023-02-16T14:21:32.590Z,24.20
2023-02-16T14:22:32.555Z,24.27
2023-02-16T14:23:32.523Z,24.28
2023-02-16T14:24:33.002Z,24.32
2023-02-16T14:25:32.466Z,24.34
2023-02-16T14:26:32.430Z,24.37
2023-02-16T14:27:32.392Z,24.41
2023-02-16T14:28:32.361Z,24.44
2023-02-16T14:29:32.375Z,24.49
2023-02-16T14:30:32.493Z,24.50
2023-02-16T14:31:32.397Z,24.55
2023-02-16T14:32:32.393Z,24.57
2023-02-16T14:33:32.260Z,24.60
2023-02-16T14:34:32.257Z,24.63
2023-02-16T14:35:32.245Z,24.68
2023-02-16T14:36:32.609Z,24.72
2023-02-16T14:37:32.212Z,24.76
2023-02-16T14:38:32.217Z,24.80
2023-02-16T14:39:32.189Z,24.85
2023-02-16T14:40:32.170Z,24.91
2023-02-16T14:41:32.112Z,24.93
2023-02-16T14:42:32.062Z,24.96
2023-02-16T14:43:32.026Z,25.02
2023-02-16T14:44:32.013Z,25.05
2023-02-16T14:45:31.905Z,25.08
2023-02-16T14:46:31.887Z,25.12
2023-02-16T14:47:31.767Z,25.14
2023-02-16T14:48:31.722Z,25.21
2023-02-16T14:49:31.629Z,25.25
2023-02-16T14:50:31.561Z,25.27
2023-02-16T14:51:31.506Z,25.31
2023-02-16T14:52:31.459Z,25.36
2023-02-16T14:53:31.402Z,25.42
2023-02-16T14:54:31.381Z,25.44
2023-02-16T14:55:31.304Z,25.49
2023-02-16T14:56:32.049Z,25.53
2023-02-16T14:57:31.248Z,25.56
2023-02-16T14:58:31.152Z,25.63
2023-02-16T14:59:31.109Z,25.63
2023-02-16T15:00:31.108Z,25.70
2023-02-16T15:01:31.067Z,25.76
2023-02-16T15:02:31.076Z,25.77
2023-02-16T15:03:30.997Z,25.81
2023-02-16T15:04:30.957Z,25.79
2023-02-16T15:05:30.922Z,25.86
2023-02-16T15:06:31.029Z,25.89
2023-02-16T15:07:30.878Z,25.93
2023-02-16T15:08:30.849Z,25.93
2023-02-16T15:09:31.035Z,25.96
2023-02-16T15:10:31.522Z,25.99
2023-02-16T15:11:30.806Z,26.03
2023-02-16T15:12:30.866Z,26.07
2023-02-16T15:13:30.782Z,26.09
2023-02-16T15:14:30.776Z,26.12
2023-02-16T15:15:30.769Z,26.15
2023-02-16T15:16:30.768Z,26.15
2023-02-16T15:17:30.755Z,26.18
2023-02-16T15:18:30.745Z,26.20
2023-02-16T15:20:30.744Z,26.21
2023-02-16T15:21:30.819Z,26.28
2023-02-16T15:22:30.753Z,26.29
2023-02-16T15:23:30.754Z,26.32
2023-02-16T15:24:30.802Z,26.33
2023-02-16T15:25:30.790Z,26.36
2023-02-16T15:26:30.792Z,26.35
2023-02-16T15:27:30.790Z,26.41
2023-02-16T15:28:30.815Z,26.40
2023-02-16T15:29:30.813Z,26.46
2023-02-16T15:30:30.905Z,26.45
2023-02-16T15:31:31.002Z,26.45
2023-02-16T15:32:30.821Z,26.49
2023-02-16T15:33:30.835Z,26.50
2023-02-16T15:34:30.817Z,26.50
2023-02-16T15:35:30.775Z,26.52
2023-02-16T15:36:30.735Z,26.55
2023-02-16T15:37:30.662Z,26.55
2023-02-16T15:38:30.603Z,26.58
2023-02-16T15:39:41.349Z,26.61
2023-02-16T15:40:31.505Z,26.66
2023-02-16T15:41:30.422Z,26.66
2023-02-16T15:42:30.354Z,26.67
2023-02-16T15:43:30.355Z,26.69
2023-02-16T15:44:30.219Z,26.70
2023-02-16T15:45:30.173Z,26.73
2023-02-16T15:46:30.163Z,26.75
2023-02-16T15:47:30.034Z,26.76
2023-02-16T15:48:30.022Z,26.76
2023-02-16T15:49:29.897Z,26.80
2023-02-16T16:01:31.781Z,26.94
2023-02-16T16:15:28.276Z,27.15
2023-02-16T16:16:28.246Z,27.17
2023-02-16T16:17:28.163Z,27.17
2023-02-16T16:18:28.090Z,27.17
2023-02-16T16:19:28.032Z,27.20
2023-02-16T16:20:27.967Z,27.23
2023-02-16T16:21:27.907Z,27.27
2023-02-16T16:22:27.849Z,27.26
2023-02-16T17:43:23.524Z,28.23
2023-02-16T17:44:23.475Z,28.24
2023-02-16T17:45:23.450Z,28.25
2023-02-16T17:46:23.500Z,28.24
2023-02-16T17:47:23.318Z,28.19
2023-02-16T17:48:23.257Z,28.15
2023-02-16T17:49:23.206Z,28.21
2023-02-16T17:50:23.144Z,28.26
2023-02-16T17:51:23.097Z,28.22
2023-02-16T17:52:23.121Z,28.22
2023-02-16T17:53:22.985Z,28.22
2023-02-16T17:54:22.940Z,28.22
2023-02-16T17:55:22.885Z,28.18
2023-02-16T17:56:22.828Z,28.23
2023-02-16T17:57:22.846Z,28.24
2023-02-16T17:58:22.822Z,28.24
2023-02-16T17:59:22.707Z,28.22
2023-02-16T18:00:23.584Z,28.21
2023-02-16T18:01:22.745Z,28.23
2023-02-16T18:02:22.653Z,28.24
2023-02-16T18:03:22.644Z,28.23
2023-02-16T18:04:22.692Z,28.23
2023-02-16T18:05:22.669Z,28.25
2023-02-16T18:06:22.669Z,28.25
2023-02-16T18:07:22.693Z,28.21
2023-02-16T18:08:22.687Z,28.23
2023-02-16T18:09:22.692Z,28.26
2023-02-16T18:10:22.714Z,28.26
2023-02-16T18:11:22.805Z,28.26
2023-02-16T18:12:22.732Z,28.27
2023-02-16T18:13:22.813Z,28.24
2023-02-16T18:14:22.746Z,28.28
2023-02-16T18:15:22.755Z,28.28
2023-02-16T18:16:22.790Z,28.29
2023-02-16T18:17:22.789Z,28.29
2023-02-16T18:18:22.798Z,28.30
2023-02-16T18:19:22.819Z,28.30
2023-02-16T18:20:22.819Z,28.32
2023-02-16T18:21:22.900Z,28.31
2023-02-16T18:22:22.844Z,28.29
2023-02-16T18:23:22.863Z,28.31
2023-02-16T18:24:22.875Z,28.34
2023-02-16T18:25:22.892Z,28.30
2023-02-16T18:26:22.934Z,28.34
2023-02-16T18:27:22.904Z,28.32
2023-02-16T18:28:22.916Z,28.36
2023-02-16T18:29:22.927Z,28.37
2023-02-16T18:30:23.010Z,28.38
2023-02-16T18:31:23.012Z,28.33
2023-02-16T18:32:22.951Z,28.37
2023-02-16T18:33:22.976Z,28.38
2023-02-16T18:34:24.654Z,28.40
2023-02-16T18:35:23.021Z,28.38
2023-02-16T18:36:23.024Z,28.36
2023-02-16T18:37:23.040Z,28.38
2023-02-16T18:38:23.071Z,28.34
2023-02-16T18:39:23.063Z,28.40
2023-02-16T18:40:23.089Z,28.42
2023-02-16T18:41:23.112Z,28.40
2023-02-16T18:42:23.125Z,28.40
2023-02-16T18:43:23.193Z,28.43
2023-02-16T18:44:24.110Z,28.45
2023-02-16T18:45:23.240Z,28.45
2023-02-16T18:46:23.286Z,28.44
2023-02-16T18:47:23.231Z,28.44
2023-02-16T18:48:23.245Z,28.46
2023-02-16T18:49:23.259Z,28.47
2023-02-16T18:50:24.109Z,28.48
2023-02-16T18:51:23.304Z,28.48
2023-02-16T18:52:23.315Z,28.45
2023-02-16T18:53:23.329Z,28.44
2023-02-16T18:54:23.355Z,28.47
2023-02-16T18:55:23.376Z,28.50
2023-02-16T18:56:23.399Z,28.48
2023-02-16T18:57:23.426Z,28.48
2023-02-16T18:58:24.113Z,28.49
2023-02-16T18:59:23.455Z,28.50
2023-02-16T19:00:23.478Z,28.51
2023-02-16T19:01:23.537Z,28.50
2023-02-16T19:02:23.522Z,28.50
2023-02-16T19:03:23.562Z,28.50
2023-02-16T19:04:23.612Z,28.51
2023-02-16T19:05:23.589Z,28.51
2023-02-16T19:06:23.594Z,28.50
2023-02-16T19:07:23.624Z,28.53
2023-02-16T22:10:20.594Z,28.89
2023-02-16T22:11:20.569Z,28.88
2023-02-16T22:12:20.542Z,28.87
2023-02-16T22:13:20.559Z,28.83
2023-02-16T22:14:20.497Z,28.86
2023-02-16T22:15:20.448Z,28.84
2023-02-16T22:16:20.450Z,28.86
2023-02-16T22:17:20.414Z,28.88
2023-02-16T22:18:20.365Z,28.85
2023-02-16T22:19:20.340Z,28.87
2023-02-16T22:20:20.304Z,28.87
2023-02-16T22:21:20.277Z,28.88
2023-02-16T22:22:20.246Z,28.87
2023-02-16T22:23:20.231Z,28.87
2023-02-16T22:24:20.206Z,28.89
2023-02-16T22:25:20.169Z,28.89
2023-02-16T22:26:20.152Z,28.87
2023-02-16T22:27:20.128Z,28.85
2023-02-16T22:28:20.093Z,28.90
2023-02-16T22:29:20.076Z,28.93
2023-02-16T22:30:20.089Z,28.89
2023-02-16T22:31:20.125Z,28.92
2023-02-16T22:32:20.024Z,28.91
2023-02-16T22:33:19.950Z,28.91
2023-02-16T22:34:19.936Z,28.93
2023-02-16T22:35:19.896Z,28.93
2023-02-16T23:19:18.894Z,28.96
2023-02-16T23:20:19.617Z,28.98
2023-02-16T23:21:18.877Z,28.96
2023-02-16T23:23:18.848Z,28.98
2023-02-16T23:24:18.829Z,28.98
2023-02-16T23:25:18.797Z,28.97
2023-02-16T23:26:18.781Z,28.94
2023-02-16T23:27:18.773Z,28.97
2023-02-16T23:28:18.741Z,28.95
2023-02-16T23:39:18.588Z,28.94
2023-02-16T23:41:18.546Z,28.96
